createdAt,value
2023-02-03T00:02:18.405Z,2.10
2023-02-03T00:04:47.635Z,2.10
2023-02-03T00:07:17.056Z,2.10
2023-02-03T00:09:46.415Z,2.20
2023-02-03T00:12:15.999Z,2.10
2023-02-03T00:14:46.688Z,2.10
2023-02-03T00:17:16.188Z,2.00
2023-02-03T00:19:45.454Z,2.00
2023-02-03T00:22:14.593Z,1.90
2023-02-03T00:24:44.052Z,1.90
2023-02-03T00:27:14.490Z,1.80
2023-02-03T00:29:43.715Z,1.80
2023-02-03T00:32:14.417Z,1.90
2023-02-03T00:34:43.716Z,1.90
2023-02-03T00:37:14.435Z,1.90
2023-02-03T00:39:43.788Z,1.90
2023-02-03T00:42:12.980Z,1.80
2023-02-03T00:44:42.263Z,1.80
2023-02-03T00:47:11.500Z,1.80
2023-02-03T00:49:42.341Z,1.70
2023-02-03T00:52:11.544Z,1.70
2023-02-03T00:54:40.768Z,1.80
2023-02-03T00:57:09.965Z,1.70
2023-02-03T00:59:41.613Z,1.60
2023-02-03T01:02:11.564Z,1.50
2023-02-03T01:04:42.268Z,1.40
2023-02-03T01:07:11.699Z,1.40
2023-02-03T01:09:41.143Z,1.40
2023-02-03T01:12:10.477Z,1.40
2023-02-03T01:14:39.785Z,1.50
2023-02-03T01:17:09.975Z,1.50
2023-02-03T01:19:39.208Z,1.50
2023-02-03T01:22:09.804Z,1.40
2023-02-03T01:24:39.143Z,1.40
2023-02-03T01:27:08.335Z,1.50
2023-02-03T01:29:37.774Z,1.50
2023-02-03T01:32:07.255Z,1.50
2023-02-03T01:34:37.619Z,1.60
2023-02-03T01:37:09.885Z,1.50
2023-02-03T01:39:39.229Z,1.60
2023-02-03T01:42:10.544Z,1.60
2023-02-03T01:44:46.277Z,1.60
2023-02-03T01:47:25.167Z,1.70
2023-02-03T01:49:59.932Z,1.70
2023-02-03T01:52:31.780Z,1.70
2023-02-03T01:55:04.263Z,1.60
2023-02-03T01:57:38.024Z,1.70
2023-02-03T02:00:09.878Z,1.70
2023-02-03T02:02:48.627Z,1.70
2023-02-03T02:05:27.055Z,1.60
2023-02-03T02:07:59.871Z,1.60
2023-02-03T02:10:31.821Z,1.70
2023-02-03T02:13:04.025Z,1.70
2023-02-03T02:15:44.769Z,1.60
2023-02-03T02:18:30.289Z,1.60
2023-02-03T02:21:24.531Z,1.60
2023-02-03T02:24:50.741Z,1.60
2023-02-03T02:27:42.194Z,1.50
2023-02-03T02:30:44.576Z,1.30
2023-02-03T02:33:28.345Z,1.40
2023-02-03T02:36:03.060Z,1.30
2023-02-03T02:38:45.719Z,1.50
2023-02-03T02:41:21.072Z,1.50
2023-02-03T02:43:57.860Z,1.50
2023-02-03T02:46:33.728Z,1.50
2023-02-03T02:49:08.983Z,1.50
2023-02-03T02:51:41.101Z,1.50
2023-02-03T02:54:14.057Z,1.50
2023-02-03T02:56:45.699Z,1.50
2023-02-03T02:59:16.236Z,1.50
2023-02-03T03:01:45.403Z,1.60
2023-02-03T03:04:20.213Z,1.60
2023-02-03T03:06:53.544Z,1.50
2023-02-03T03:09:26.070Z,1.50
2023-02-03T03:12:00.405Z,1.50
2023-02-03T03:14:33.010Z,1.50
2023-02-03T03:17:07.376Z,1.50
2023-02-03T03:19:42.992Z,1.50
2023-02-03T03:22:17.480Z,1.50
2023-02-03T03:24:50.197Z,1.50
2023-02-03T03:27:23.218Z,1.40
2023-02-03T03:29:58.074Z,1.40
2023-02-03T03:32:28.350Z,1.40
2023-02-03T03:34:59.192Z,1.30
2023-02-03T03:37:35.707Z,1.30
2023-02-03T03:40:11.158Z,1.30
2023-02-03T03:42:43.335Z,1.20
2023-02-03T03:45:18.398Z,1.20
2023-02-03T03:47:52.695Z,1.10
2023-02-03T03:50:26.974Z,1.00
2023-02-03T03:52:59.460Z,1.00
2023-02-03T03:55:30.526Z,0.90
2023-02-03T03:58:03.499Z,0.90
2023-02-03T04:00:36.173Z,0.80
2023-02-03T04:03:12.333Z,0.80
2023-02-03T04:05:43.401Z,0.80
2023-02-03T04:08:12.684Z,0.80
2023-02-03T04:10:44.026Z,0.80
2023-02-03T04:13:16.158Z,0.80
2023-02-03T04:15:45.512Z,0.70
2023-02-03T04:18:16.641Z,0.70
2023-02-03T04:20:47.296Z,0.70
2023-02-03T04:23:16.669Z,0.60
2023-02-03T04:25:45.958Z,0.60
2023-02-03T04:28:15.133Z,0.60
2023-02-03T04:30:44.288Z,0.60
2023-02-03T04:33:13.544Z,0.60
2023-02-03T04:35:42.751Z,0.60
2023-02-03T04:38:13.473Z,0.50
2023-02-03T04:40:42.927Z,0.50
2023-02-03T04:43:12.083Z,0.50
2023-02-03T04:45:41.301Z,0.50
2023-02-03T04:48:10.687Z,0.50
2023-02-03T04:50:40.105Z,0.50
2023-02-03T04:53:09.294Z,0.40
2023-02-03T04:55:39.857Z,0.30
2023-02-03T04:58:10.576Z,0.30
2023-02-03T05:00:39.892Z,0.20
2023-02-03T05:03:09.248Z,0.30
2023-02-03T05:05:38.656Z,0.40
2023-02-03T05:08:08.112Z,0.30
2023-02-03T05:10:38.828Z,0.30
2023-02-03T05:13:08.102Z,0.30
2023-02-03T05:15:37.260Z,0.30
2023-02-03T05:18:06.598Z,0.30
2023-02-03T05:20:35.817Z,0.30
2023-02-03T05:23:05.946Z,0.40
2023-02-03T05:25:35.219Z,0.30
2023-02-03T05:28:06.292Z,0.30
2023-02-03T05:30:35.519Z,0.30
2023-02-03T05:33:04.838Z,0.50
2023-02-03T05:35:34.114Z,0.40
2023-02-03T05:38:03.446Z,0.40
2023-02-03T05:40:49.818Z,0.30
2023-02-03T05:43:20.741Z,0.40
2023-02-03T05:45:50.040Z,0.40
2023-02-03T05:48:19.560Z,0.40
2023-02-03T05:50:48.953Z,0.40
2023-02-03T05:53:18.280Z,0.30
2023-02-03T05:55:47.614Z,0.40
2023-02-03T05:58:17.125Z,0.40
2023-02-03T06:00:48.360Z,0.30
2023-02-03T06:03:17.650Z,0.40
2023-02-03T06:05:46.824Z,0.40
2023-02-03T06:08:16.129Z,0.40
2023-02-03T06:10:45.460Z,0.40
2023-02-03T06:13:16.449Z,0.40
2023-02-03T06:15:47.149Z,0.40
2023-02-03T06:18:16.471Z,0.40
2023-02-03T06:20:45.723Z,0.50
2023-02-03T06:23:17.377Z,0.50
2023-02-03T06:25:46.752Z,0.40
2023-02-03T06:28:16.549Z,0.50
2023-02-03T06:30:47.386Z,0.60
2023-02-03T06:33:16.940Z,0.50
2023-02-03T06:35:46.583Z,0.50
2023-02-03T06:38:16.035Z,0.60
2023-02-03T06:40:47.713Z,0.60
2023-02-03T06:43:17.163Z,0.60
2023-02-03T06:45:48.674Z,0.60
2023-02-03T06:48:18.184Z,0.70
2023-02-03T06:50:48.818Z,0.70
2023-02-03T06:53:18.295Z,0.70
2023-02-03T06:55:48.282Z,0.70
2023-02-03T06:58:17.614Z,0.80
2023-02-03T07:00:48.413Z,0.90
2023-02-03T07:03:17.726Z,1.00
2023-02-03T07:05:47.033Z,1.10
2023-02-03T07:08:16.176Z,1.20
2023-02-03T07:10:45.638Z,1.40
2023-02-03T07:13:14.928Z,1.40
2023-02-03T07:15:44.189Z,1.50
2023-02-03T07:18:25.683Z,1.60
2023-02-03T07:21:07.164Z,1.70
2023-02-03T07:23:36.475Z,1.80
2023-02-03T07:26:07.662Z,1.90
2023-02-03T07:28:37.482Z,2.10
2023-02-03T07:31:08.382Z,2.40
2023-02-03T07:33:39.318Z,2.80
2023-02-03T07:36:10.536Z,3.10
2023-02-03T07:38:40.017Z,3.10
2023-02-03T07:41:09.505Z,3.10
2023-02-03T07:43:38.634Z,3.20
2023-02-03T07:46:07.926Z,3.20
2023-02-03T07:48:38.666Z,3.40
2023-02-03T07:51:08.294Z,3.60
2023-02-03T07:53:37.619Z,3.70
2023-02-03T07:56:07.943Z,3.80
2023-02-03T07:58:37.096Z,4.00
2023-02-03T08:01:12.271Z,4.20
2023-02-03T08:03:43.419Z,4.30
2023-02-03T08:06:12.825Z,4.50
2023-02-03T08:08:42.503Z,4.80
2023-02-03T08:11:12.110Z,5.00
2023-02-03T08:13:41.771Z,5.30
2023-02-03T08:16:11.313Z,5.40
2023-02-03T08:18:40.855Z,5.40
2023-02-03T08:21:11.495Z,5.50
2023-02-03T08:23:40.720Z,5.40
2023-02-03T08:26:10.546Z,5.40
2023-02-03T08:28:40.130Z,5.60
2023-02-03T08:31:13.285Z,5.80
2023-02-03T08:33:42.933Z,6.00
2023-02-03T08:36:14.109Z,6.00
2023-02-03T08:38:43.743Z,6.00
2023-02-03T08:41:14.853Z,5.90
2023-02-03T08:43:44.272Z,5.80
2023-02-03T08:46:14.597Z,5.80
2023-02-03T08:48:44.035Z,5.90
2023-02-03T08:51:18.359Z,5.90
2023-02-03T08:53:47.869Z,5.90
2023-02-03T08:56:17.400Z,5.80
2023-02-03T08:58:46.929Z,5.60
2023-02-03T09:01:17.622Z,5.50
2023-02-03T09:03:46.928Z,5.40
2023-02-03T09:06:17.972Z,5.20
2023-02-03T09:08:48.465Z,5.40
2023-02-03T09:11:19.384Z,5.30
2023-02-03T09:13:50.607Z,5.10
2023-02-03T09:16:23.187Z,5.00
2023-02-03T09:18:53.247Z,5.00
2023-02-03T09:21:35.511Z,5.00
2023-02-03T09:24:11.064Z,4.90
2023-02-03T09:26:41.363Z,5.00
2023-02-03T09:29:11.024Z,5.10
2023-02-03T09:31:40.386Z,5.10
2023-02-03T09:34:11.200Z,5.10
2023-02-03T09:36:43.211Z,5.10
2023-02-03T09:39:13.109Z,5.10
2023-02-03T09:42:02.597Z,5.10
2023-02-03T09:44:39.362Z,5.00
2023-02-03T09:47:14.923Z,4.90
2023-02-03T09:49:50.591Z,4.90
2023-02-03T09:52:23.382Z,4.90
2023-02-03T09:54:58.709Z,5.00
2023-02-03T09:57:30.332Z,5.00
2023-02-03T10:00:01.773Z,5.10
2023-02-03T10:02:45.770Z,5.20
2023-02-03T10:05:22.893Z,5.20
2023-02-03T10:08:05.452Z,5.10
2023-02-03T10:10:41.041Z,5.10
2023-02-03T10:13:24.545Z,5.10
2023-02-03T10:16:22.560Z,5.00
2023-02-03T10:18:55.641Z,4.90
2023-02-03T10:21:36.152Z,4.80
2023-02-03T10:24:13.525Z,4.90
2023-02-03T10:26:43.711Z,4.90
2023-02-03T10:29:21.789Z,4.90
2023-02-03T10:31:51.485Z,4.80
2023-02-03T10:34:21.200Z,4.60
2023-02-03T10:36:57.389Z,4.60
2023-02-03T10:39:35.148Z,4.60
2023-02-03T10:42:07.606Z,4.60
2023-02-03T10:44:41.076Z,4.60
2023-02-03T10:47:23.507Z,4.60
2023-02-03T10:49:54.628Z,4.50
2023-02-03T10:52:30.941Z,4.50
2023-02-03T10:55:06.295Z,4.50
2023-02-03T10:57:39.485Z,4.50
2023-02-03T11:00:23.589Z,4.60
2023-02-03T11:03:04.761Z,4.60
2023-02-03T11:05:34.345Z,4.60
2023-02-03T11:08:04.462Z,4.60
2023-02-03T11:10:38.129Z,4.50
2023-02-03T11:13:18.328Z,4.40
2023-02-03T11:15:54.755Z,4.30
2023-02-03T11:18:33.109Z,4.20
2023-02-03T11:21:07.725Z,4.20
2023-02-03T11:23:37.129Z,4.20
2023-02-03T11:26:15.993Z,4.30
2023-02-03T11:28:48.354Z,4.20
2023-02-03T11:31:22.027Z,4.20
2023-02-03T11:33:56.110Z,4.10
2023-02-03T11:36:29.314Z,4.00
2023-02-03T11:39:21.544Z,3.90
2023-02-03T11:41:52.517Z,3.90
2023-02-03T11:44:26.502Z,3.90
2023-02-03T11:47:02.076Z,3.70
2023-02-03T11:50:14.979Z,3.70
2023-02-03T11:52:57.563Z,3.70
2023-02-03T11:55:44.603Z,3.70
2023-02-03T11:58:40.218Z,3.70
2023-02-03T12:01:20.859Z,3.70
2023-02-03T12:04:05.786Z,3.50
2023-02-03T12:06:48.793Z,3.40
2023-02-03T12:09:30.775Z,3.50
2023-02-03T12:12:21.843Z,3.50
2023-02-03T12:15:03.394Z,3.50
2023-02-03T12:17:48.556Z,3.50
2023-02-03T12:20:34.518Z,3.40
2023-02-03T12:23:14.429Z,3.40
2023-02-03T12:25:56.383Z,3.40
2023-02-03T12:28:41.441Z,3.40
2023-02-03T12:31:19.826Z,3.50
2023-02-03T12:33:54.419Z,3.40
2023-02-03T12:36:28.126Z,3.40
2023-02-03T12:39:02.952Z,3.50
2023-02-03T12:41:38.100Z,3.50
2023-02-03T12:44:17.026Z,3.40
2023-02-03T12:46:53.279Z,3.40
2023-02-03T12:49:35.048Z,3.30
2023-02-03T12:52:14.739Z,3.30
2023-02-03T12:54:51.016Z,3.40
2023-02-03T12:57:27.492Z,3.30
2023-02-03T13:00:19.955Z,3.40
2023-02-03T13:03:02.344Z,3.40
2023-02-03T13:05:41.104Z,3.50
2023-02-03T13:08:18.223Z,3.40
2023-02-03T13:10:51.830Z,3.30
2023-02-03T13:13:29.893Z,3.40
2023-02-03T13:16:00.105Z,3.30
2023-02-03T13:18:35.143Z,3.20
2023-02-03T13:21:04.852Z,3.10
2023-02-03T13:23:34.617Z,3.00
2023-02-03T13:26:25.065Z,2.90
2023-02-03T13:29:20.451Z,2.90
2023-02-03T13:32:03.410Z,2.80
2023-02-03T13:34:55.839Z,2.70
2023-02-03T13:37:53.048Z,2.70
2023-02-03T13:40:34.566Z,2.60
2023-02-03T13:43:07.124Z,2.40
2023-02-03T13:45:42.553Z,2.30
2023-02-03T13:48:17.792Z,2.30
2023-02-03T13:50:49.477Z,2.20
2023-02-03T13:53:21.194Z,2.10
2023-02-03T13:55:57.137Z,2.00
2023-02-03T13:59:03.141Z,1.90
2023-02-03T14:01:38.925Z,1.90
2023-02-03T14:04:10.067Z,1.90
2023-02-03T14:10:22.284Z,1.80
2023-02-03T14:13:03.938Z,1.70
2023-02-03T14:15:34.837Z,1.70
2023-02-03T14:18:36.428Z,1.70
2023-02-03T14:21:23.905Z,1.60
2023-02-03T14:24:10.033Z,1.60
2023-02-03T14:26:43.564Z,1.50
2023-02-03T14:29:27.188Z,1.40
2023-02-03T14:32:01.168Z,1.30
2023-02-03T14:34:37.671Z,1.20
2023-02-03T14:37:20.296Z,1.20
2023-02-03T14:40:26.726Z,1.10
2023-02-03T14:43:13.749Z,1.10
2023-02-03T14:46:09.050Z,1.00
2023-02-03T14:49:02.247Z,0.90
2023-02-03T14:51:44.697Z,0.90
2023-02-03T14:54:29.312Z,0.90
2023-02-03T14:57:20.269Z,0.90
2023-02-03T14:59:52.045Z,0.80
2023-02-03T15:02:25.628Z,0.90
2023-02-03T15:05:19.683Z,0.90
2023-02-03T15:07:50.238Z,0.80
2023-02-03T15:10:21.962Z,0.90
2023-02-03T15:12:54.760Z,0.90
2023-02-03T15:15:27.183Z,0.80
2023-02-03T15:17:59.819Z,0.90
2023-02-03T15:20:38.990Z,0.90
2023-02-03T15:23:21.923Z,0.90
2023-02-03T15:25:56.292Z,0.90
2023-02-03T15:28:28.582Z,0.80
2023-02-03T15:31:02.936Z,0.80
2023-02-03T15:33:34.213Z,0.70
2023-02-03T15:36:09.524Z,0.70
2023-02-03T15:38:44.281Z,0.60
2023-02-03T15:41:22.321Z,0.50
2023-02-03T15:43:57.084Z,0.50
2023-02-03T15:46:33.984Z,0.70
2023-02-03T15:49:09.046Z,0.70
2023-02-03T15:51:44.315Z,0.50
2023-02-03T15:54:19.198Z,0.50
2023-02-03T15:56:57.029Z,0.50
2023-02-03T15:59:32.807Z,0.50
2023-02-03T16:02:04.447Z,0.50
2023-02-03T16:04:34.081Z,0.40
2023-02-03T16:07:03.440Z,0.40
2023-02-03T16:09:34.791Z,0.40
2023-02-03T16:12:07.181Z,0.40
2023-02-03T16:14:38.968Z,0.40
2023-02-03T16:17:22.960Z,0.40
2023-02-03T16:19:52.839Z,0.40
2023-02-03T16:22:32.181Z,0.40
2023-02-03T16:25:16.148Z,0.40
2023-02-03T16:27:47.006Z,0.50
2023-02-03T16:30:44.757Z,0.50
2023-02-03T16:33:36.738Z,0.50
2023-02-03T16:36:31.305Z,0.60
2023-02-03T16:39:21.754Z,0.60
2023-02-03T16:42:08.926Z,0.50
2023-02-03T16:44:55.404Z,0.60
2023-02-03T16:47:45.831Z,0.50
2023-02-03T16:50:38.773Z,0.60
2023-02-03T16:53:14.711Z,0.60
2023-02-03T16:55:45.451Z,0.60
2023-02-03T16:58:15.296Z,0.70
2023-02-03T17:00:46.946Z,0.70
2023-02-03T17:03:21.243Z,0.60
2023-02-03T17:05:52.799Z,0.60
2023-02-03T17:08:24.255Z,0.70
2023-02-03T17:10:54.295Z,0.80
2023-02-03T17:13:25.003Z,0.80
2023-02-03T17:15:55.797Z,0.80
2023-02-03T17:18:27.147Z,0.80
2023-02-03T17:20:58.927Z,0.80
2023-02-03T17:23:30.128Z,0.90
2023-02-03T17:26:00.360Z,0.80
2023-02-03T17:28:30.145Z,0.90
2023-02-03T17:31:01.378Z,0.80
2023-02-03T17:33:33.942Z,0.80
2023-02-03T17:36:07.174Z,0.80
2023-02-03T17:55:28.236Z,0.90
2023-02-03T17:57:58.318Z,0.80
2023-02-03T18:00:29.764Z,0.90
2023-02-03T18:02:59.909Z,0.90
2023-02-03T18:05:32.862Z,0.90
2023-02-03T18:08:09.171Z,0.90
2023-02-03T18:10:46.510Z,1.00
2023-02-03T18:13:20.356Z,1.00
2023-02-03T18:15:50.530Z,1.00
2023-02-03T18:18:23.605Z,0.90
2023-02-03T18:20:55.766Z,1.00
2023-02-03T18:23:25.774Z,1.00
2023-02-03T18:25:56.836Z,0.90
2023-02-03T18:28:30.523Z,0.90
2023-02-03T18:31:04.400Z,0.90
2023-02-03T18:33:36.601Z,0.90
2023-02-03T18:36:10.921Z,0.90
2023-02-03T18:38:44.162Z,0.80
2023-02-03T18:41:17.964Z,0.90
2023-02-03T18:43:50.796Z,0.90
2023-02-03T18:46:25.864Z,0.90
2023-02-03T18:48:59.294Z,0.90
2023-02-03T18:51:37.249Z,0.90
2023-02-03T18:54:09.084Z,1.00
2023-02-03T18:56:40.656Z,0.90
2023-02-03T18:59:14.378Z,0.90
2023-02-03T19:01:47.490Z,0.90
2023-02-03T19:04:22.409Z,0.90
2023-02-03T19:06:57.027Z,1.00
2023-02-03T19:09:28.805Z,1.00
2023-02-03T19:12:00.206Z,1.00
2023-02-03T19:14:32.130Z,1.00
2023-02-03T19:17:04.875Z,1.00
2023-02-03T19:19:36.939Z,1.00
2023-02-03T19:22:10.764Z,1.00
2023-02-03T19:24:47.664Z,0.90
2023-02-03T19:27:18.965Z,1.00
2023-02-03T19:29:50.497Z,0.90
2023-02-03T19:32:22.431Z,0.90
2023-02-03T19:34:55.318Z,0.80
2023-02-03T19:37:30.485Z,1.00
2023-02-03T19:40:00.758Z,0.90
2023-02-03T19:42:32.175Z,1.00
2023-02-03T19:45:02.750Z,1.00
2023-02-03T19:47:34.271Z,1.00
2023-02-03T19:50:11.499Z,0.90
2023-02-03T19:52:45.245Z,1.00
2023-02-03T19:55:18.517Z,1.00
2023-02-03T19:57:51.656Z,1.00
2023-02-03T20:00:24.769Z,0.90
2023-02-03T20:02:56.057Z,0.90
2023-02-03T20:05:34.671Z,1.00
2023-02-03T20:08:14.164Z,1.00
2023-02-03T20:10:48.951Z,1.00
2023-02-03T20:13:20.830Z,1.00
2023-02-03T20:15:52.039Z,1.20
2023-02-03T20:18:24.079Z,0.90
2023-02-03T20:20:56.361Z,1.00
2023-02-03T20:23:29.154Z,0.80
2023-02-03T20:26:03.087Z,0.90
2023-02-03T20:28:34.908Z,0.90
2023-02-03T20:31:09.463Z,0.90
2023-02-03T20:33:41.522Z,0.90
2023-02-03T20:36:12.995Z,0.90
2023-02-03T20:38:50.476Z,0.90
2023-02-03T20:41:24.381Z,0.90
2023-02-03T20:43:57.509Z,0.90
2023-02-03T20:46:32.091Z,0.90
2023-02-03T20:49:04.962Z,0.80
2023-02-03T20:51:35.898Z,0.80
2023-02-03T20:54:17.727Z,0.80
2023-02-03T20:56:50.312Z,0.90
2023-02-03T20:59:22.524Z,0.80
2023-02-03T21:01:53.990Z,0.80
2023-02-03T21:04:42.188Z,0.80
2023-02-03T21:07:18.970Z,0.80
2023-02-03T21:09:52.509Z,0.80
2023-02-03T21:12:24.844Z,0.80
2023-02-03T21:14:56.562Z,0.70
2023-02-03T21:17:31.157Z,0.70
2023-02-03T21:20:03.391Z,0.70
2023-02-03T21:22:35.908Z,0.80
2023-02-03T21:25:29.645Z,0.80
2023-02-03T21:28:02.871Z,0.80
2023-02-03T21:30:40.062Z,0.80
2023-02-03T21:33:35.066Z,0.80
2023-02-03T21:36:07.353Z,0.80
2023-02-03T21:38:38.956Z,0.80
2023-02-03T21:41:17.821Z,0.80
2023-02-03T21:43:51.557Z,0.70
2023-02-03T21:46:26.732Z,0.70
2023-02-03T21:48:58.427Z,0.70
2023-02-03T21:51:33.440Z,0.70
2023-02-03T21:54:05.596Z,0.70
2023-02-03T21:56:48.106Z,0.70
2023-02-03T21:59:19.655Z,0.60
2023-02-03T22:01:51.306Z,0.60
2023-02-03T22:04:21.345Z,0.70
2023-02-03T22:06:54.612Z,0.60
2023-02-03T22:09:26.463Z,0.60
2023-02-03T22:11:57.518Z,0.60
2023-02-03T22:14:27.794Z,0.60
2023-02-03T22:16:57.812Z,0.60
2023-02-03T22:19:27.344Z,0.60
2023-02-03T22:21:57.622Z,0.50
2023-02-03T22:24:27.678Z,0.50
2023-02-03T22:27:00.437Z,0.50
2023-02-03T22:29:29.769Z,0.50
2023-02-03T22:31:59.607Z,0.40
2023-02-03T22:34:28.857Z,0.40
2023-02-03T22:36:58.065Z,0.40
2023-02-03T22:39:27.496Z,0.40
2023-02-03T22:41:58.172Z,0.30
2023-02-03T22:44:27.515Z,0.20
2023-02-03T22:46:56.931Z,0.30
2023-02-03T22:49:26.208Z,0.30
2023-02-03T22:51:55.547Z,0.30
2023-02-03T22:54:24.934Z,0.30
2023-02-03T22:56:54.120Z,0.30
2023-02-03T22:59:24.911Z,0.20
2023-02-03T23:01:54.152Z,0.20
2023-02-03T23:04:23.948Z,0.20
2023-02-03T23:06:53.796Z,0.10
2023-02-03T23:09:23.361Z,0.10
2023-02-03T23:11:52.752Z,0.00
2023-02-03T23:14:23.502Z,0.00
2023-02-03T23:16:52.756Z,-0.10
2023-02-03T23:19:22.112Z,0.00
2023-02-03T23:21:51.343Z,0.00
2023-02-03T23:24:20.569Z,-0.10
2023-02-03T23:26:49.776Z,0.00
2023-02-03T23:29:19.213Z,0.00
2023-02-03T23:31:50.056Z,0.00
2023-02-03T23:34:36.701Z,-0.10
2023-02-03T23:37:05.990Z,-0.10
2023-02-03T23:39:35.145Z,-0.10
2023-02-03T23:42:04.355Z,-0.10
2023-02-03T23:44:33.606Z,-0.10
2023-02-03T23:47:04.547Z,-0.20
2023-02-03T23:49:33.804Z,-0.20
2023-02-03T23:52:03.321Z,-0.20
2023-02-03T23:54:32.613Z,-0.30
2023-02-03T23:57:01.862Z,-0.30
2023-02-03T23:59:31.145Z,-0.40
